Time;durP1;ratioP1;P1;durP2;ratioP2;P2;SDS_P1;SDS_P2;PMS_P1;PMS_P2;Temp;Humidity;BMP_temperature;BMP_pressure;BME280_temperature;BME280_humidity;BME280_pressure;Samples;Min_cycle;Max_cycle;Signal;HPM_P1;HPM_P2
2023/10/12 00:00:41;;;;;;;18.13;4.55;;;17.50;99.90;;;;;;5032310;28;20045;-64
2023/10/12 00:03:16;;;;;;;12.63;4.47;;;17.50;99.90;;;;;;5043552;28;20052;-63
2023/10/12 00:05:45;;;;;;;13.18;4.05;;;17.50;99.90;;;;;;5036891;28;20065;-64
2023/10/12 00:08:29;;;;;;;16.63;4.35;;;17.60;99.90;;;;;;5044145;28;20108;-64
2023/10/12 00:10:55;;;;;;;12.30;3.97;;;17.50;99.90;;;;;;5051267;28;20067;-64
2023/10/12 00:13:27;;;;;;;;;;;17.50;99.90;;;;;;5059355;28;20076;-64
2023/10/12 00:15:55;;;;;;;14.23;4.70;;;17.50;99.90;;;;;;5063107;28;19939;-64
2023/10/12 00:18:22;;;;;;;17.02;4.68;;;17.50;99.90;;;;;;5041567;28;20052;-63
2023/10/12 00:20:54;;;;;;;16.17;3.75;;;17.50;99.90;;;;;;5036148;28;20463;-63
2023/10/12 00:23:20;;;;;;;18.10;4.22;;;17.50;99.90;;;;;;5046766;28;20624;-63
2023/10/12 00:25:47;;;;;;;;;;;17.40;99.90;;;;;;5048619;28;20105;-64
2023/10/12 00:28:21;;;;;;;13.07;4.13;;;17.40;99.90;;;;;;5030235;28;19932;-64
2023/10/12 00:30:47;;;;;;;12.27;4.30;;;17.40;99.90;;;;;;5023678;28;20037;-64
2023/10/12 00:33:13;;;;;;;13.85;4.38;;;17.40;99.90;;;;;;5029432;28;20107;-64
2023/10/12 00:35:39;;;;;;;;;;;17.40;99.90;;;;;;5039141;28;20037;-64
2023/10/12 00:38:39;;;;;;;11.00;4.47;;;17.40;99.90;;;;;;5036032;28;19912;-64
2023/10/12 00:41:03;;;;;;;18.83;4.80;;;17.40;99.90;;;;;;5031121;28;20045;-64
2023/10/12 00:43:37;;;;;;;15.55;4.60;;;17.40;99.90;;;;;;5040409;28;20508;-65
2023/10/12 00:46:40;;;;;;;19.52;4.70;;;17.40;99.90;;;;;;5034725;28;20030;-64
2023/10/12 00:49:20;;;;;;;11.88;4.13;;;17.40;99.90;;;;;;5036977;28;20068;-64
2023/10/12 00:51:51;;;;;;;14.73;4.30;;;17.30;99.90;;;;;;5032918;28;20116;-65
2023/10/12 00:54:40;;;;;;;18.38;4.70;;;17.30;99.90;;;;;;5039482;28;20043;-65
2023/10/12 00:57:08;;;;;;;12.93;4.10;;;17.30;99.90;;;;;;5039031;28;20478;-65
2023/10/12 00:59:36;;;;;;;16.27;4.95;;;17.30;99.90;;;;;;5048539;28;20586;-65
2023/10/12 01:02:08;;;;;;;21.30;6.38;;;17.20;99.90;;;;;;5034826;28;20066;-65
2023/10/12 01:04:35;;;;;;;17.67;5.30;;;17.20;99.90;;;;;;5043951;28;20450;-64
2023/10/12 01:07:00;;;;;;;23.92;4.57;;;17.20;99.90;;;;;;5037236;28;20132;-64
2023/10/12 01:09:38;;;;;;;;;;;17.20;99.90;;;;;;5043362;28;20120;-65
2023/10/12 01:12:06;;;;;;;18.52;4.70;;;17.20;99.90;;;;;;5035687;28;19924;-65
2023/10/12 01:14:33;;;;;;;16.60;4.68;;;17.10;99.90;;;;;;5032370;28;20053;-65
2023/10/12 01:16:58;;;;;;;11.60;4.78;;;17.10;99.90;;;;;;5023189;28;20138;-64
2023/10/12 01:19:31;;;;;;;;;;;17.20;99.90;;;;;;5036450;28;20671;-65
2023/10/12 01:22:12;;;;;;;12.27;4.50;;;17.10;99.90;;;;;;5039447;28;19948;-64
2023/10/12 01:24:57;;;;;;;12.00;4.90;;;17.20;99.90;;;;;;5043415;28;20037;-64
2023/10/12 01:27:25;;;;;;;11.48;4.22;;;17.20;99.90;;;;;;5040930;28;20045;-64
2023/10/12 01:29:52;;;;;;;11.50;4.65;;;17.10;99.90;;;;;;5048146;28;20049;-64
2023/10/12 01:34:56;;;;;;;13.80;4.82;;;17.10;99.90;;;;;;5030965;28;20144;-65
2023/10/12 01:37:26;;;;;;;10.27;4.18;;;17.10;99.90;;;;;;5027835;28;20053;-64
2023/10/12 01:42:37;;;;;;;14.40;4.80;;;17.10;99.90;;;;;;5037940;28;20072;-65
2023/10/12 01:45:06;;;;;;;13.57;4.80;;;17.00;99.90;;;;;;5038593;28;20094;-65
2023/10/12 01:47:37;;;;;;;11.65;4.30;;;17.00;99.90;;;;;;5031666;28;20175;-65
2023/10/12 01:50:05;;;;;;;16.15;4.78;;;16.90;99.90;;;;;;5039261;28;20512;-65
2023/10/12 01:52:32;;;;;;;11.13;4.47;;;16.90;99.90;;;;;;5030500;28;20072;-65
2023/10/12 01:54:58;;;;;;;14.52;5.07;;;16.90;99.90;;;;;;5037707;28;20040;-64
2023/10/12 01:57:32;;;;;;;19.35;5.38;;;16.90;99.90;;;;;;5040809;28;20440;-65
2023/10/12 01:59:58;;;;;;;14.73;4.95;;;16.90;99.90;;;;;;5033257;28;20052;-64
2023/10/12 02:02:24;;;;;;;8.45;4.55;;;16.90;99.90;;;;;;5032897;28;20049;-64
2023/10/12 02:04:51;;;;;;;;;;;16.90;99.90;;;;;;5033356;28;20087;-64
2023/10/12 02:07:17;;;;;;;;;;;16.90;99.90;;;;;;5038291;28;19917;-64
2023/10/12 02:09:44;;;;;;;18.65;5.57;;;16.80;99.90;;;;;;5037919;28;19932;-65
2023/10/12 02:12:12;;;;;;;11.68;5.38;;;16.80;99.90;;;;;;5031249;28;20041;-64
2023/10/12 02:14:40;;;;;;;19.20;5.32;;;16.90;99.90;;;;;;5028802;28;20683;-64
2023/10/12 02:17:11;;;;;;;13.13;4.72;;;16.90;99.90;;;;;;5026719;28;20049;-65
2023/10/12 02:19:43;;;;;;;14.40;5.55;;;16.80;99.90;;;;;;5033240;28;20041;-65
2023/10/12 02:22:24;;;;;;;13.18;5.32;;;16.80;99.90;;;;;;5029692;28;20072;-65
2023/10/12 02:27:54;;;;;;;16.92;4.57;;;16.80;99.90;;;;;;5018118;28;20052;-65
2023/10/12 02:30:28;;;;;;;21.20;4.77;;;16.80;99.90;;;;;;5037785;28;20075;-64
2023/10/12 02:33:12;;;;;;;9.50;4.78;;;16.80;99.90;;;;;;5031856;28;20041;-64
2023/10/12 02:35:44;;;;;;;17.08;5.20;;;16.70;99.90;;;;;;5033436;28;20415;-65
2023/10/12 02:38:14;;;;;;;9.05;4.63;;;16.70;99.90;;;;;;5036495;28;20108;-65
2023/10/12 02:40:41;;;;;;;14.40;5.60;;;16.80;99.90;;;;;;5038414;28;20041;-65
2023/10/12 02:43:10;;;;;;;19.65;4.75;;;16.70;99.90;;;;;;5035649;28;20041;-65
2023/10/12 02:45:40;;;;;;;15.30;4.43;;;16.70;99.90;;;;;;5040044;28;20045;-64
2023/10/12 02:48:12;;;;;;;20.13;6.38;;;16.60;99.90;;;;;;5031107;28;20042;-65
2023/10/12 02:50:57;;;;;;;12.27;5.05;;;16.60;99.90;;;;;;5034300;28;20049;-64
2023/10/12 02:53:29;;;;;;;13.23;5.20;;;16.60;99.90;;;;;;5040004;28;20056;-64
2023/10/12 02:55:58;;;;;;;11.43;4.85;;;16.60;99.90;;;;;;5032121;28;20041;-65
2023/10/12 02:58:25;;;;;;;14.23;5.05;;;16.50;99.90;;;;;;5032576;28;20131;-65
2023/10/12 03:00:56;;;;;;;20.73;5.45;;;16.60;99.90;;;;;;5032114;28;20047;-65
2023/10/12 03:03:25;;;;;;;16.35;5.32;;;16.50;99.90;;;;;;5033067;28;20068;-65
2023/10/12 03:05:58;;;;;;;14.93;4.68;;;16.50;99.90;;;;;;5029233;28;20092;-65
2023/10/12 03:08:30;;;;;;;18.63;4.28;;;16.40;99.90;;;;;;5037386;28;20072;-65
2023/10/12 03:13:37;;;;;;;22.85;6.05;;;16.40;99.90;;;;;;5040043;28;20052;-65
2023/10/12 03:18:37;;;;;;;15.38;5.03;;;16.20;99.90;;;;;;5036500;28;20452;-66
2023/10/12 03:21:05;;;;;;;16.05;5.38;;;16.20;99.90;;;;;;5032662;28;20392;-63
2023/10/12 03:23:34;;;;;;;12.10;4.75;;;16.10;99.90;;;;;;5028211;28;20050;-63
2023/10/12 03:26:24;;;;;;;13.35;5.38;;;16.00;99.90;;;;;;5031778;28;20134;-62
2023/10/12 03:28:50;;;;;;;10.63;5.93;;;16.00;99.90;;;;;;5032388;28;20511;-63
2023/10/12 03:31:23;;;;;;;25.52;6.15;;;15.80;99.90;;;;;;5032007;28;20121;-62
2023/10/12 03:33:54;;;;;;;13.50;5.43;;;15.70;99.90;;;;;;5046442;28;20053;-63
2023/10/12 03:36:32;;;;;;;20.30;6.47;;;15.70;99.90;;;;;;5021270;28;20041;-63
2023/10/12 03:41:54;;;;;;;11.68;5.53;;;15.50;99.90;;;;;;5035334;28;20048;-63
2023/10/12 03:44:57;;;;;;;18.40;7.20;;;15.50;99.90;;;;;;5047404;28;20037;-63
2023/10/12 03:49:57;;;;;;;18.83;6.57;;;15.20;99.90;;;;;;5037551;28;20041;-65
2023/10/12 03:52:34;;;;;;;17.70;6.00;;;15.20;99.90;;;;;;5033288;28;20056;-64
2023/10/12 03:57:30;;;;;;;14.00;5.50;;;15.00;99.90;;;;;;5038512;28;20048;-65
2023/10/12 04:00:25;;;;;;;13.48;6.22;;;15.00;99.90;;;;;;5042425;28;20208;-65
2023/10/12 04:02:47;;;;;;;20.73;7.20;;;14.90;99.90;;;;;;5037496;28;20497;-65
2023/10/12 04:05:18;;;;;;;15.48;6.60;;;14.80;99.90;;;;;;5045481;28;20120;-65
2023/10/12 04:13:09;;;;;;;19.15;7.47;;;14.60;99.90;;;;;;5042429;28;20033;-65
2023/10/12 04:18:28;;;;;;;18.63;6.50;;;14.50;99.90;;;;;;5034218;28;20034;-65
2023/10/12 04:20:57;;;;;;;16.40;7.35;;;14.40;99.90;;;;;;5045811;28;20037;-64
2023/10/12 04:27:06;;;;;;;23.38;6.95;;;14.30;99.90;;;;;;5033975;28;20041;-65
2023/10/12 04:28:56;;;;;;;16.10;6.82;;;14.30;99.90;;;;;;5035108;28;20080;-65
2023/10/12 04:36:44;;;;;;;24.23;7.03;;;14.20;99.90;;;;;;5044129;28;20049;-63
2023/10/12 04:46:59;;;;;;;14.60;6.68;;;14.20;99.90;;;;;;5032942;28;20052;-64
2023/10/12 04:57:30;;;;;;;21.80;6.20;;;14.20;99.90;;;;;;5034942;28;20068;-64
2023/10/12 05:02:54;;;;;;;14.40;5.32;;;14.20;99.90;;;;;;5041457;28;20049;-64
2023/10/12 05:07:54;;;;;;;13.25;5.72;;;14.20;99.90;;;;;;5039679;28;20072;-64
2023/10/12 05:13:10;;;;;;;13.25;5.13;;;14.20;99.90;;;;;;5038703;28;20038;-64
2023/10/12 05:15:40;;;;;;;14.98;5.00;;;14.20;99.90;;;;;;5030891;28;20049;-64
2023/10/12 05:18:09;;;;;;;10.30;4.60;;;14.20;99.90;;;;;;5033560;28;20037;-63
2023/10/12 05:20:35;;;;;;;10.00;4.72;;;14.20;99.90;;;;;;5048341;28;20049;-64
2023/10/12 05:23:03;;;;;;;10.50;4.35;;;14.20;99.90;;;;;;5040087;28;20526;-64
2023/10/12 05:25:33;;;;;;;13.35;5.03;;;14.20;99.90;;;;;;5029365;28;20723;-64
2023/10/12 05:28:13;;;;;;;18.27;5.30;;;14.10;99.90;;;;;;5028908;28;20056;-63
2023/10/12 05:30:46;;;;;;;15.57;5.57;;;14.10;99.90;;;;;;5039799;28;20033;-63
2023/10/12 05:33:28;;;;;;;11.38;4.72;;;14.10;99.90;;;;;;5032584;28;20520;-64
2023/10/12 05:35:57;;;;;;;14.90;5.97;;;14.10;99.90;;;;;;5037132;28;20688;-63
2023/10/12 05:38:34;;;;;;;12.48;5.85;;;14.20;99.90;;;;;;5031541;28;20049;-65
2023/10/12 05:41:00;;;;;;;12.30;5.03;;;14.20;99.90;;;;;;5043050;28;20140;-64
2023/10/12 05:43:33;;;;;;;12.90;4.95;;;14.10;99.90;;;;;;5038064;28;20075;-65
2023/10/12 05:46:09;;;;;;;12.60;5.32;;;14.10;99.90;;;;;;5027699;28;20069;-64
2023/10/12 05:48:41;;;;;;;9.73;4.78;;;14.10;99.90;;;;;;5040113;28;20044;-65
2023/10/12 05:51:10;;;;;;;11.88;5.00;;;14.10;99.90;;;;;;5038171;28;20696;-65
2023/10/12 05:53:37;;;;;;;16.58;5.82;;;14.10;99.90;;;;;;5045344;28;20049;-64
2023/10/12 05:56:04;;;;;;;14.98;5.32;;;14.10;99.90;;;;;;5043548;28;20500;-66
2023/10/12 05:58:32;;;;;;;14.68;5.72;;;14.00;99.90;;;;;;5044329;28;20515;-65
2023/10/12 06:01:05;;;;;;;12.07;4.88;;;14.00;99.90;;;;;;5036430;28;20117;-64
2023/10/12 06:03:31;;;;;;;11.65;4.60;;;14.00;99.90;;;;;;5042596;28;20045;-64
2023/10/12 06:05:57;;;;;;;;;;;14.10;99.90;;;;;;5041970;28;20516;-65
2023/10/12 06:08:26;;;;;;;10.60;4.85;;;14.00;99.90;;;;;;5045204;28;19956;-65
2023/10/12 06:10:54;;;;;;;12.40;4.85;;;14.00;99.90;;;;;;5045797;28;20049;-65
2023/10/12 06:13:23;;;;;;;8.95;4.63;;;14.00;99.90;;;;;;5034521;28;20099;-65
2023/10/12 06:15:53;;;;;;;10.60;4.57;;;14.00;99.90;;;;;;5043236;28;20048;-65
2023/10/12 06:18:21;;;;;;;14.13;5.43;;;14.00;99.90;;;;;;5031381;28;20063;-65
2023/10/12 06:20:59;;;;;;;11.35;4.95;;;14.00;99.90;;;;;;5044835;28;20040;-65
2023/10/12 06:23:25;;;;;;;12.25;5.40;;;14.10;99.90;;;;;;5038932;28;20038;-65
2023/10/12 06:25:51;;;;;;;;;;;14.00;99.90;;;;;;5040203;28;20099;-65
2023/10/12 06:28:17;;;;;;;14.18;5.20;;;14.00;99.90;;;;;;5040845;28;20478;-65
2023/10/12 06:30:46;;;;;;;;;;;14.00;99.90;;;;;;5047264;28;20459;-65
2023/10/12 06:33:15;;;;;;;8.82;4.20;;;13.90;99.90;;;;;;5042340;28;19921;-65
2023/10/12 06:36:00;;;;;;;14.30;4.20;;;13.90;99.90;;;;;;5034922;28;20714;-65
2023/10/12 06:38:38;;;;;;;10.40;4.50;;;13.90;99.90;;;;;;5041382;28;20040;-65
2023/10/12 06:46:19;;;;;;;11.02;4.22;;;13.80;99.90;;;;;;5040230;28;20115;-65
2023/10/12 06:48:45;;;;;;;10.43;4.43;;;13.80;99.90;;;;;;5039613;28;20568;-65
2023/10/12 06:51:13;;;;;;;11.73;4.30;;;13.80;99.90;;;;;;5033054;28;20114;-65
2023/10/12 06:53:41;;;;;;;10.60;4.68;;;13.90;99.90;;;;;;5035990;28;20045;-65
2023/10/12 06:59:07;;;;;;;8.57;4.20;;;14.00;99.90;;;;;;5035753;28;20096;-65
2023/10/12 07:01:38;;;;;;;9.65;4.32;;;14.00;99.90;;;;;;5037457;28;20477;-66
2023/10/12 07:04:12;;;;;;;10.32;4.97;;;14.00;99.90;;;;;;5042606;28;20723;-66
2023/10/12 07:06:56;;;;;;;10.25;4.65;;;14.00;99.90;;;;;;5036327;28;20124;-65
2023/10/12 07:09:40;;;;;;;12.02;5.15;;;14.00;99.90;;;;;;5043792;28;20049;-66
2023/10/12 07:12:07;;;;;;;19.52;5.57;;;14.00;99.90;;;;;;5040093;28;20091;-65
2023/10/12 07:14:34;;;;;;;10.45;4.97;;;13.90;99.90;;;;;;5033364;28;20455;-65
2023/10/12 07:17:02;;;;;;;16.67;5.38;;;14.00;99.90;;;;;;5034056;28;20102;-65
2023/10/12 07:19:28;;;;;;;9.95;4.78;;;14.00;99.90;;;;;;5042662;28;20049;-65
2023/10/12 07:22:01;;;;;;;;;;;14.00;99.90;;;;;;5037853;28;20048;-63
2023/10/12 07:24:30;;;;;;;12.32;5.15;;;14.10;99.90;;;;;;5043354;28;19943;-64
2023/10/12 07:27:10;;;;;;;18.88;7.22;;;14.10;99.90;;;;;;5039149;28;20049;-63
2023/10/12 07:29:37;;;;;;;14.32;5.45;;;14.00;99.90;;;;;;5047550;28;20049;-65
2023/10/12 07:32:30;;;;;;;19.90;6.93;;;14.00;99.90;;;;;;5039491;28;20041;-65
2023/10/12 07:34:57;;;;;;;12.95;5.78;;;14.10;99.90;;;;;;5041228;28;20500;-64
2023/10/12 07:37:23;;;;;;;14.15;6.03;;;14.00;99.90;;;;;;5043215;28;20056;-64
2023/10/12 07:39:54;;;;;;;12.60;5.72;;;14.10;99.90;;;;;;5048783;28;20870;-64
2023/10/12 07:42:27;;;;;;;16.25;6.20;;;14.10;99.90;;;;;;5038198;28;20033;-64
2023/10/12 07:45:05;;;;;;;14.15;6.80;;;14.10;99.90;;;;;;5043040;28;20510;-64
2023/10/12 07:47:32;;;;;;;17.48;6.50;;;14.10;99.90;;;;;;5042985;28;20108;-64
2023/10/12 07:49:58;;;;;;;;;;;14.10;99.90;;;;;;5046577;28;20107;-64
2023/10/12 07:53:06;;;;;;;16.73;6.37;;;14.10;99.90;;;;;;5043214;28;19916;-65
2023/10/12 07:55:17;;;;;;;11.40;6.35;;;14.10;99.90;;;;;;5038885;28;20299;-64
2023/10/12 07:57:44;;;;;;;21.48;7.30;;;14.00;99.90;;;;;;5045472;28;20049;-64
2023/10/12 08:05:43;;;;;;;16.98;7.28;;;14.10;99.90;;;;;;5041746;28;20052;-65
2023/10/12 08:15:55;;;;;;;22.55;7.32;;;14.20;99.90;;;;;;5042197;28;20460;-64
2023/10/12 08:21:25;;;;;;;20.65;7.07;;;14.20;99.90;;;;;;5042602;28;20046;-64
2023/10/12 08:26:47;;;;;;;16.83;7.00;;;14.20;99.90;;;;;;5044416;28;20096;-63
2023/10/12 08:30:02;;;;;;;15.25;6.65;;;14.30;99.90;;;;;;5044555;28;20127;-64
2023/10/12 08:39:37;;;;;;;23.08;7.05;;;14.40;99.90;;;;;;5044443;28;20049;-64
2023/10/12 08:44:53;;;;;;;20.13;6.18;;;14.40;99.90;;;;;;5034326;28;20037;-63
2023/10/12 08:50:08;;;;;;;13.93;5.57;;;14.40;99.90;;;;;;5045360;28;20068;-64
2023/10/12 08:52:35;;;;;;;;;;;14.40;99.90;;;;;;5043392;28;20042;-64
2023/10/12 08:58:11;;;;;;;17.85;6.40;;;14.50;99.90;;;;;;5044382;28;20098;-63
2023/10/12 09:00:42;;;;;;;14.10;5.63;;;14.50;99.90;;;;;;5043564;28;20051;-63
2023/10/12 09:03:24;;;;;;;10.70;5.07;;;14.50;99.90;;;;;;5045006;28;20048;-63
2023/10/12 09:05:51;;;;;;;15.18;6.68;;;14.50;99.90;;;;;;5036832;28;20037;-62
2023/10/12 09:11:13;;;;;;;18.98;7.38;;;14.50;99.90;;;;;;5037299;28;20045;-62
2023/10/12 09:13:50;;;;;;;18.52;6.95;;;14.40;99.90;;;;;;5045226;28;20429;-63
2023/10/12 09:16:17;;;;;;;16.88;7.25;;;14.40;99.90;;;;;;5041389;28;20115;-64
2023/10/12 09:18:46;;;;;;;18.60;7.90;;;14.50;99.90;;;;;;5039997;28;20464;-64
2023/10/12 09:23:58;;;;;;;20.38;7.40;;;14.40;99.90;;;;;;5045480;28;20048;-63
2023/10/12 09:26:33;;;;;;;18.52;7.82;;;14.50;99.90;;;;;;5035514;28;20030;-63
2023/10/12 09:29:23;;;;;;;15.40;7.13;;;14.50;99.90;;;;;;5034955;28;20048;-63
2023/10/12 09:32:14;;;;;;;19.23;7.88;;;14.50;99.90;;;;;;5045046;28;20041;-63
2023/10/12 09:34:47;;;;;;;16.63;8.00;;;14.50;99.90;;;;;;5041443;28;20052;-64
2023/10/12 09:37:16;;;;;;;18.25;8.40;;;14.50;99.90;;;;;;5030040;28;20382;-64
2023/10/12 09:39:46;;;;;;;21.85;9.32;;;14.50;99.90;;;;;;5038686;28;20515;-61
2023/10/12 09:42:30;;;;;;;15.90;7.22;;;14.60;99.90;;;;;;5042954;28;20404;-62
2023/10/12 09:45:10;;;;;;;15.82;7.60;;;14.60;99.90;;;;;;5048680;28;20384;-63
2023/10/12 09:47:45;;;;;;;15.43;8.55;;;14.60;99.90;;;;;;5031256;28;20072;-63
2023/10/12 09:50:16;;;;;;;16.40;8.25;;;14.60;99.90;;;;;;5045042;28;20114;-63
2023/10/12 09:52:57;;;;;;;25.35;8.63;;;14.60;99.90;;;;;;5038679;28;20072;-63
2023/10/12 09:55:32;;;;;;;20.10;8.05;;;14.70;99.90;;;;;;5038598;28;20060;-63
2023/10/12 09:58:12;;;;;;;22.58;8.68;;;14.60;99.90;;;;;;5038501;28;20496;-63
2023/10/12 10:00:58;;;;;;;19.60;8.40;;;14.60;99.90;;;;;;5042264;28;20048;-63
2023/10/12 10:03:27;;;;;;;15.20;8.00;;;14.60;99.90;;;;;;5023037;28;20049;-63
2023/10/12 10:06:10;;;;;;;25.00;8.90;;;14.50;99.90;;;;;;5031370;28;20148;-62
2023/10/12 10:08:44;;;;;;;22.38;7.93;;;14.50;99.90;;;;;;5029801;28;20045;-63
2023/10/12 10:11:12;;;;;;;19.50;8.93;;;14.50;99.90;;;;;;5035725;28;20397;-62
2023/10/12 10:13:49;;;;;;;17.40;8.10;;;14.40;99.90;;;;;;5039515;28;20416;-65
2023/10/12 10:16:19;;;;;;;16.95;7.40;;;14.50;99.90;;;;;;5032502;28;20046;-64
2023/10/12 10:18:56;;;;;;;20.70;7.90;;;14.50;99.90;;;;;;5041076;28;20775;-64
2023/10/12 10:21:29;;;;;;;21.15;8.15;;;14.50;99.90;;;;;;5042824;28;20045;-64
2023/10/12 10:23:57;;;;;;;22.40;8.10;;;14.60;99.90;;;;;;5040647;28;20064;-63
2023/10/12 10:26:30;;;;;;;19.02;7.75;;;14.50;99.90;;;;;;5040897;28;20053;-63
2023/10/12 10:29:05;;;;;;;15.45;7.10;;;14.60;99.90;;;;;;5046919;28;20056;-63
2023/10/12 10:31:36;;;;;;;18.60;7.60;;;14.60;99.90;;;;;;5039149;28;20037;-63
2023/10/12 10:34:11;;;;;;;18.77;7.78;;;14.50;99.90;;;;;;5037573;28;20047;-63
2023/10/12 10:36:38;;;;;;;16.02;6.72;;;14.40;99.90;;;;;;5035485;28;20075;-64
2023/10/12 10:39:28;;;;;;;20.85;6.00;;;14.40;99.90;;;;;;5040092;28;20500;-63
2023/10/12 10:42:00;;;;;;;22.25;6.25;;;14.40;99.90;;;;;;5030529;28;20496;-63
2023/10/12 10:44:26;;;;;;;13.07;5.72;;;14.40;99.90;;;;;;5044829;28;20229;-63
2023/10/12 10:47:00;;;;;;;13.43;5.00;;;14.40;99.90;;;;;;5028600;28;20048;-64
2023/10/12 10:49:36;;;;;;;11.60;4.60;;;14.30;99.90;;;;;;5025333;28;20054;-63
2023/10/12 10:54:34;;;;;;;7.85;4.00;;;14.40;99.90;;;;;;5046024;28;20045;-63
2023/10/12 10:57:14;;;;;;;9.85;3.70;;;14.50;99.90;;;;;;5038413;28;20049;-63
2023/10/12 10:59:39;;;;;;;9.77;4.40;;;14.50;99.90;;;;;;5039556;28;20041;-62
2023/10/12 11:02:05;;;;;;;;;;;14.60;99.90;;;;;;5037710;28;20056;-64
2023/10/12 11:07:02;;;;;;;12.27;4.22;;;14.70;99.90;;;;;;5034805;28;20124;-64
2023/10/12 11:12:17;;;;;;;12.70;4.40;;;14.70;99.90;;;;;;5030922;28;20060;-64
2023/10/12 11:15:00;;;;;;;14.85;4.70;;;14.80;99.90;;;;;;5043928;28;20672;-64
2023/10/12 11:17:31;;;;;;;17.20;5.10;;;14.70;99.90;;;;;;5024445;28;20504;-63
2023/10/12 11:20:00;;;;;;;17.67;6.10;;;14.70;99.90;;;;;;5036602;28;20051;-63
2023/10/12 11:22:26;;;;;;;21.27;4.70;;;14.80;99.90;;;;;;5033913;28;20053;-63
2023/10/12 11:24:53;;;;;;;;;;;14.80;99.90;;;;;;5046512;28;20041;-65
2023/10/12 11:27:33;;;;;;;18.92;5.75;;;14.90;99.90;;;;;;5031027;28;19927;-64
2023/10/12 11:30:18;;;;;;;13.98;5.15;;;14.90;99.90;;;;;;5046924;28;20052;-64
2023/10/12 11:32:55;;;;;;;14.38;5.25;;;14.90;99.90;;;;;;5028521;28;20033;-64
2023/10/12 11:35:40;;;;;;;17.25;5.55;;;15.00;99.90;;;;;;5038740;28;20041;-64
2023/10/12 11:38:26;;;;;;;13.68;4.63;;;15.00;99.90;;;;;;5033219;28;20076;-64
2023/10/12 11:40:52;;;;;;;12.27;5.72;;;15.20;99.90;;;;;;5029946;28;20402;-63
2023/10/12 11:43:26;;;;;;;15.80;4.97;;;15.20;99.90;;;;;;5026663;28;20550;-64
2023/10/12 11:46:01;;;;;;;16.05;5.57;;;15.20;99.90;;;;;;5041803;28;20041;-64
2023/10/12 11:48:28;;;;;;;21.70;5.90;;;15.30;99.90;;;;;;5032349;28;20045;-64
2023/10/12 11:50:58;;;;;;;21.85;4.93;;;15.30;99.90;;;;;;5042764;28;20389;-64
2023/10/12 11:53:24;;;;;;;16.27;5.60;;;15.30;99.90;;;;;;5037480;28;20512;-64
2023/10/12 11:56:12;;;;;;;17.63;5.30;;;15.30;99.90;;;;;;5038815;28;20667;-64
2023/10/12 11:58:38;;;;;;;18.58;5.32;;;15.30;99.90;;;;;;5024785;28;20060;-64
2023/10/12 12:01:07;;;;;;;;;;;15.20;99.90;;;;;;5041798;28;20913;-63
2023/10/12 12:03:39;;;;;;;13.00;4.53;;;15.20;99.90;;;;;;5038498;28;19983;-63
2023/10/12 12:06:10;;;;;;;15.10;5.70;;;15.10;99.90;;;;;;5028937;28;20037;-64
2023/10/12 12:08:36;;;;;;;16.88;4.78;;;15.10;99.90;;;;;;5029175;28;20061;-64
2023/10/12 12:11:03;;;;;;;;;;;15.00;99.90;;;;;;5040087;28;20116;-64
2023/10/12 12:13:29;;;;;;;14.15;4.80;;;15.00;99.90;;;;;;5031741;28;19931;-64
2023/10/12 12:15:57;;;;;;;;;;;15.10;99.90;;;;;;5043431;28;20119;-64
2023/10/12 12:18:23;;;;;;;23.02;5.47;;;15.10;99.90;;;;;;5032869;28;19924;-64
2023/10/12 12:20:52;;;;;;;;;;;15.10;99.90;;;;;;5030931;28;20046;-64
2023/10/12 12:23:19;;;;;;;19.65;5.07;;;15.10;99.90;;;;;;5026287;28;19924;-63
2023/10/12 12:25:45;;;;;;;17.77;4.93;;;15.10;99.90;;;;;;5039601;28;20911;-64
2023/10/12 12:28:14;;;;;;;8.88;4.07;;;15.20;99.90;;;;;;5029359;28;20037;-64
2023/10/12 12:30:46;;;;;;;13.25;4.88;;;15.20;99.90;;;;;;5030703;28;20072;-64
2023/10/12 12:33:15;;;;;;;16.42;5.50;;;15.20;99.90;;;;;;5028438;28;20497;-64
2023/10/12 12:35:41;;;;;;;19.88;5.88;;;15.30;99.90;;;;;;5036091;28;20112;-64
2023/10/12 12:38:22;;;;;;;17.85;5.15;;;15.30;99.90;;;;;;5038505;28;20061;-64
2023/10/12 12:40:49;;;;;;;13.23;4.75;;;15.40;99.90;;;;;;5026138;28;20064;-64
2023/10/12 12:43:14;;;;;;;22.08;5.35;;;15.40;99.90;;;;;;5038492;28;20037;-64
2023/10/12 12:45:41;;;;;;;;;;;15.40;99.90;;;;;;5037124;28;20045;-64
2023/10/12 12:48:07;;;;;;;13.48;4.90;;;15.40;99.90;;;;;;5036412;28;20036;-64
2023/10/12 12:50:32;;;;;;;;;;;15.40;99.90;;;;;;5046927;28;20127;-63
2023/10/12 12:52:58;;;;;;;14.43;5.53;;;15.40;99.90;;;;;;5041913;28;19936;-63
2023/10/12 12:55:27;;;;;;;;;;;15.40;99.90;;;;;;5042213;28;20045;-64
2023/10/12 12:57:56;;;;;;;20.05;5.75;;;15.40;99.90;;;;;;5035131;28;19925;-63
2023/10/12 13:00:22;;;;;;;11.70;4.68;;;15.40;99.90;;;;;;5034075;28;20129;-64
2023/10/12 13:02:48;;;;;;;18.48;5.45;;;15.40;99.90;;;;;;5032697;28;20500;-63
2023/10/12 13:05:14;;;;;;;13.73;5.53;;;15.50;99.90;;;;;;5028228;28;20120;-63
2023/10/12 13:07:40;;;;;;;;;;;15.50;99.90;;;;;;5035779;28;20127;-63
2023/10/12 13:10:07;;;;;;;12.02;4.93;;;15.60;99.90;;;;;;5034901;28;19951;-63
2023/10/12 13:12:33;;;;;;;11.07;5.35;;;15.60;99.90;;;;;;5037156;28;20516;-63
2023/10/12 13:15:02;;;;;;;;;;;15.60;99.90;;;;;;5043558;28;20469;-64
2023/10/12 13:17:31;;;;;;;16.88;5.20;;;15.60;99.90;;;;;;5035885;28;20415;-63
2023/10/12 13:20:00;;;;;;;15.02;5.78;;;15.60;99.90;;;;;;5045428;28;20040;-63
2023/10/12 13:22:26;;;;;;;15.05;5.00;;;15.50;99.90;;;;;;5043939;28;20041;-64
2023/10/12 13:24:56;;;;;;;16.10;5.32;;;15.50;99.90;;;;;;5042013;28;20101;-63
2023/10/12 13:27:32;;;;;;;12.98;5.38;;;15.50;99.90;;;;;;5041342;28;20053;-63
2023/10/12 13:30:02;;;;;;;19.08;5.47;;;15.50;99.90;;;;;;5032765;28;20075;-64
2023/10/12 13:32:28;;;;;;;14.05;5.05;;;15.50;99.90;;;;;;5030638;28;20042;-64
2023/10/12 13:34:57;;;;;;;;;;;15.50;99.90;;;;;;5041351;28;20038;-63
2023/10/12 13:37:30;;;;;;;23.63;5.40;;;15.50;99.90;;;;;;5039824;28;19924;-64
2023/10/12 13:39:59;;;;;;;14.05;4.82;;;15.50;99.90;;;;;;5044368;28;20053;-64
2023/10/12 13:42:28;;;;;;;16.20;4.78;;;15.50;99.90;;;;;;5035370;28;20037;-64
2023/10/12 13:44:54;;;;;;;15.43;5.65;;;15.50;99.90;;;;;;5040837;28;20084;-64
2023/10/12 13:47:20;;;;;;;19.17;5.95;;;15.50;99.90;;;;;;5039294;28;20650;-64
2023/10/12 13:49:45;;;;;;;;;;;15.50;99.90;;;;;;5045311;28;20051;-63
2023/10/12 13:52:11;;;;;;;14.07;5.57;;;15.50;99.90;;;;;;5042864;28;20359;-63
2023/10/12 13:54:36;;;;;;;;;;;15.50;99.90;;;;;;5047842;28;20045;-63
2023/10/12 13:57:02;;;;;;;19.58;5.38;;;15.40;99.90;;;;;;5042431;28;19917;-64
2023/10/12 13:59:28;;;;;;;15.13;5.40;;;15.40;99.90;;;;;;5048392;28;20542;-63
2023/10/12 14:01:56;;;;;;;15.05;5.63;;;15.30;99.90;;;;;;5035565;28;20037;-64
2023/10/12 14:04:33;;;;;;;10.45;5.03;;;15.30;99.90;;;;;;5027402;28;20049;-64
2023/10/12 14:07:02;;;;;;;16.70;5.82;;;15.30;99.90;;;;;;5038329;28;20540;-64
2023/10/12 14:09:29;;;;;;;10.35;5.05;;;15.40;99.90;;;;;;5040834;28;20048;-64
2023/10/12 14:11:55;;;;;;;18.88;5.57;;;15.40;99.90;;;;;;5036631;28;20060;-64
2023/10/12 14:14:21;;;;;;;12.98;5.10;;;15.40;99.90;;;;;;5036563;28;20456;-63
2023/10/12 14:16:47;;;;;;;;;;;15.40;99.90;;;;;;5035682;28;20059;-64
2023/10/12 14:19:16;;;;;;;13.95;5.72;;;15.40;99.90;;;;;;5043292;28;19939;-63
2023/10/12 14:21:42;;;;;;;12.68;5.55;;;15.50;99.90;;;;;;5037193;28;20048;-62
2023/10/12 14:24:08;;;;;;;11.60;5.97;;;15.40;99.90;;;;;;5039351;28;20120;-63
2023/10/12 14:26:35;;;;;;;;;;;15.40;99.90;;;;;;5035833;28;20121;-63
2023/10/12 14:29:05;;;;;;;11.65;5.72;;;15.40;99.90;;;;;;5042847;28;19924;-64
2023/10/12 14:31:32;;;;;;;11.63;5.47;;;15.40;99.90;;;;;;5036095;28;20882;-63
2023/10/12 14:33:59;;;;;;;16.30;6.15;;;15.40;99.90;;;;;;5034335;28;20090;-64
2023/10/12 14:36:26;;;;;;;17.80;6.60;;;15.40;99.90;;;;;;5036229;28;20046;-63
2023/10/12 14:38:55;;;;;;;21.80;6.82;;;15.40;99.90;;;;;;5037239;28;20120;-64
2023/10/12 14:41:25;;;;;;;20.92;6.13;;;15.30;99.90;;;;;;5038123;28;20248;-64
2023/10/12 14:43:50;;;;;;;17.35;6.20;;;15.30;99.90;;;;;;5044355;28;20753;-64
2023/10/12 14:46:19;;;;;;;;;;;15.30;99.90;;;;;;5041557;28;20072;-64
2023/10/12 14:48:49;;;;;;;18.10;6.10;;;15.30;99.90;;;;;;5038074;28;19924;-63
2023/10/12 14:51:17;;;;;;;18.83;5.78;;;15.30;99.90;;;;;;5035821;28;20176;-64
2023/10/12 14:53:44;;;;;;;18.52;5.97;;;15.30;99.90;;;;;;5039151;28;20124;-63
2023/10/12 14:56:12;;;;;;;18.63;5.90;;;15.30;99.90;;;;;;5024444;28;20043;-63
2023/10/12 14:58:39;;;;;;;14.80;6.05;;;15.30;99.90;;;;;;5038233;28;20137;-63
2023/10/12 15:01:13;;;;;;;13.60;5.65;;;15.30;99.90;;;;;;5036344;28;20033;-63
2023/10/12 15:03:41;;;;;;;15.85;6.13;;;15.30;99.90;;;;;;5030981;28;20599;-64